JBU88 KALB-KFLL
Flight info
| Callsign | JBU88 |
|---|---|
| Flight time | N/A |
| Altitude | 36000 |
| Route | ACOVE DBABE Q448 PTW J48 MOL FLASK GOWBE BURGG ENEME TEEKY3 |
| Aircraft | A320/M-SDE3FGHIRWY/LB1 |
Departure
| Time | N/A |
|---|---|
| Airport | Albany International Airport (KALB) |
Arrival
| Time | 2026-05-08 01:21 |
|---|---|
| Airport | Fort Lauderdale Hollywood International Airport (KFLL) |
| Time | Latitude | Longitude | Altitude | Speed | Heading |
|---|---|---|---|---|---|
| 2026-05-08 00:44 | 29.10328 | -82.52750 | 35992 ft | 458 kts | 188° |
| 2026-05-08 00:45 | 29.07046 | -82.52746 | 35994 ft | 458 kts | 188° |
| 2026-05-08 00:45 | 29.00483 | -82.52739 | 35998 ft | 458 kts | 188° |
| 2026-05-08 00:46 | 28.93944 | -82.52734 | 36002 ft | 458 kts | 188° |
| 2026-05-08 00:46 | 28.87336 | -82.52731 | 36002 ft | 458 kts | 188° |
| 2026-05-08 00:47 | 28.80700 | -82.52726 | 36001 ft | 458 kts | 188° |
| 2026-05-08 00:47 | 28.74011 | -82.52722 | 36004 ft | 458 kts | 188° |
| 2026-05-08 00:48 | 28.67459 | -82.52721 | 36006 ft | 461 kts | 188° |
| 2026-05-08 00:48 | 28.60808 | -82.52721 | 36006 ft | 469 kts | 187° |
| 2026-05-08 00:49 | 28.54064 | -82.52717 | 36008 ft | 470 kts | 187° |
| 2026-05-08 00:49 | 28.47377 | -82.52711 | 36010 ft | 471 kts | 187° |
| 2026-05-08 00:50 | 28.40695 | -82.52707 | 36008 ft | 471 kts | 187° |
| 2026-05-08 00:50 | 28.34008 | -82.52701 | 36009 ft | 471 kts | 187° |
| 2026-05-08 00:51 | 28.27343 | -82.52695 | 36006 ft | 470 kts | 187° |
| 2026-05-08 00:51 | 28.20712 | -82.52689 | 36011 ft | 470 kts | 187° |
| 2026-05-08 00:52 | 28.13993 | -82.52682 | 36015 ft | 472 kts | 187° |
| 2026-05-08 00:52 | 28.07245 | -82.52641 | 36011 ft | 474 kts | 185° |
| 2026-05-08 00:53 | 28.00483 | -82.51986 | 36011 ft | 480 kts | 178° |
| 2026-05-08 00:53 | 27.93777 | -82.50457 | 36014 ft | 485 kts | 171° |
| 2026-05-08 00:54 | 27.87199 | -82.48199 | 36013 ft | 487 kts | 168° |
| 2026-05-08 00:54 | 27.80504 | -82.45802 | 36012 ft | 487 kts | 168° |
| 2026-05-08 00:55 | 27.73871 | -82.43444 | 36011 ft | 488 kts | 168° |
| 2026-05-08 00:55 | 27.67258 | -82.41102 | 36011 ft | 489 kts | 168° |
| 2026-05-08 00:56 | 27.60664 | -82.38771 | 36005 ft | 489 kts | 168° |
| 2026-05-08 00:56 | 27.54124 | -82.36461 | 36005 ft | 488 kts | 168° |
| 2026-05-08 00:57 | 27.47416 | -82.34092 | 36004 ft | 488 kts | 168° |
| 2026-05-08 00:57 | 27.40797 | -82.31666 | 36008 ft | 490 kts | 165° |
| 2026-05-08 00:58 | 27.34332 | -82.28503 | 36005 ft | 495 kts | 158° |
| 2026-05-08 00:58 | 27.28089 | -82.24613 | 36000 ft | 498 kts | 155° |
| 2026-05-08 00:59 | 27.21957 | -82.20690 | 35999 ft | 497 kts | 155° |
| 2026-05-08 00:59 | 27.15682 | -82.16698 | 35999 ft | 497 kts | 155° |
| 2026-05-08 01:00 | 27.09451 | -82.12747 | 36002 ft | 497 kts | 155° |
| 2026-05-08 01:00 | 27.03130 | -82.08749 | 36004 ft | 497 kts | 154° |
| 2026-05-08 01:01 | 26.97099 | -82.04351 | 35862 ft | 490 kts | 147° |
| 2026-05-08 01:01 | 26.94379 | -82.01909 | 35423 ft | 485 kts | 142° |
| 2026-05-08 01:01 | 26.91818 | -81.99277 | 34740 ft | 484 kts | 138° |
| 2026-05-08 01:01 | 26.89412 | -81.96493 | 34026 ft | 483 kts | 136° |
| 2026-05-08 01:02 | 26.87047 | -81.93661 | 33174 ft | 485 kts | 136° |
| 2026-05-08 01:02 | 26.84657 | -81.90791 | 32280 ft | 487 kts | 136° |
| 2026-05-08 01:02 | 26.82265 | -81.87940 | 31420 ft | 489 kts | 136° |
| 2026-05-08 01:02 | 26.79882 | -81.85115 | 30706 ft | 487 kts | 136° |
| 2026-05-08 01:03 | 26.77473 | -81.82272 | 30112 ft | 482 kts | 136° |
| 2026-05-08 01:03 | 26.75046 | -81.79431 | 29548 ft | 477 kts | 136° |
| 2026-05-08 01:03 | 26.72659 | -81.76658 | 28952 ft | 473 kts | 137° |
| 2026-05-08 01:03 | 26.70287 | -81.73905 | 28362 ft | 469 kts | 136° |
| 2026-05-08 01:04 | 26.67950 | -81.71191 | 27796 ft | 465 kts | 136° |
| 2026-05-08 01:04 | 26.65638 | -81.68506 | 27225 ft | 461 kts | 136° |
| 2026-05-08 01:04 | 26.63373 | -81.65785 | 26646 ft | 458 kts | 133° |
| 2026-05-08 01:04 | 26.61313 | -81.62954 | 26095 ft | 455 kts | 129° |
| 2026-05-08 01:05 | 26.59337 | -81.60034 | 25602 ft | 450 kts | 128° |
| 2026-05-08 01:05 | 26.57353 | -81.57064 | 25101 ft | 444 kts | 128° |
| 2026-05-08 01:05 | 26.55487 | -81.54271 | 24568 ft | 441 kts | 128° |
| 2026-05-08 01:05 | 26.53573 | -81.51414 | 24018 ft | 437 kts | 128° |
| 2026-05-08 01:06 | 26.51691 | -81.48613 | 23473 ft | 434 kts | 128° |
| 2026-05-08 01:06 | 26.49811 | -81.45820 | 22935 ft | 431 kts | 128° |
| 2026-05-08 01:06 | 26.47934 | -81.43033 | 22401 ft | 428 kts | 128° |
| 2026-05-08 01:06 | 26.46092 | -81.40301 | 21904 ft | 424 kts | 128° |
| 2026-05-08 01:07 | 26.44258 | -81.37582 | 21414 ft | 420 kts | 128° |
| 2026-05-08 01:07 | 26.42416 | -81.34858 | 20930 ft | 416 kts | 128° |
| 2026-05-08 01:07 | 26.40555 | -81.32193 | 20435 ft | 412 kts | 130° |
| 2026-05-08 01:07 | 26.38631 | -81.29604 | 19967 ft | 408 kts | 131° |
| 2026-05-08 01:08 | 26.36727 | -81.27067 | 19500 ft | 404 kts | 131° |
| 2026-05-08 01:08 | 26.34834 | -81.24545 | 19021 ft | 401 kts | 131° |
| 2026-05-08 01:08 | 26.32986 | -81.22079 | 18567 ft | 397 kts | 131° |
| 2026-05-08 01:08 | 26.31174 | -81.19659 | 18116 ft | 394 kts | 130° |
| 2026-05-08 01:09 | 26.29339 | -81.17209 | 17660 ft | 390 kts | 130° |
| 2026-05-08 01:09 | 26.27524 | -81.14803 | 17208 ft | 387 kts | 130° |
| 2026-05-08 01:09 | 26.25730 | -81.12443 | 16759 ft | 383 kts | 130° |
| 2026-05-08 01:09 | 26.23929 | -81.10075 | 16329 ft | 379 kts | 131° |
| 2026-05-08 01:10 | 26.22153 | -81.07738 | 15880 ft | 376 kts | 131° |
| 2026-05-08 01:10 | 26.20367 | -81.05388 | 15444 ft | 372 kts | 130° |
| 2026-05-08 01:10 | 26.18599 | -81.03066 | 15051 ft | 367 kts | 130° |
| 2026-05-08 01:10 | 26.16888 | -81.00816 | 14857 ft | 355 kts | 130° |
| 2026-05-08 01:11 | 26.15265 | -80.98557 | 14656 ft | 345 kts | 122° |
| 2026-05-08 01:11 | 26.14315 | -80.96056 | 14457 ft | 333 kts | 103° |
| 2026-05-08 01:11 | 26.13858 | -80.93467 | 14136 ft | 324 kts | 99° |
| 2026-05-08 01:11 | 26.13478 | -80.90914 | 13796 ft | 321 kts | 99° |
| 2026-05-08 01:12 | 26.13091 | -80.88351 | 13440 ft | 318 kts | 100° |
| 2026-05-08 01:12 | 26.12699 | -80.85875 | 13086 ft | 316 kts | 100° |
| 2026-05-08 01:12 | 26.12291 | -80.83385 | 12742 ft | 314 kts | 100° |
| 2026-05-08 01:12 | 26.11881 | -80.80920 | 12403 ft | 311 kts | 100° |
| 2026-05-08 01:13 | 26.11481 | -80.78463 | 12064 ft | 309 kts | 99° |
| 2026-05-08 01:13 | 26.11136 | -80.76022 | 11720 ft | 307 kts | 98° |
| 2026-05-08 01:13 | 26.10808 | -80.73593 | 11365 ft | 306 kts | 98° |
| 2026-05-08 01:13 | 26.10482 | -80.71183 | 11016 ft | 304 kts | 98° |
| 2026-05-08 01:14 | 26.10148 | -80.68748 | 10654 ft | 303 kts | 98° |
| 2026-05-08 01:14 | 26.09812 | -80.66308 | 10305 ft | 301 kts | 98° |
| 2026-05-08 01:14 | 26.09476 | -80.63885 | 9960 ft | 299 kts | 98° |
| 2026-05-08 01:14 | 26.09155 | -80.61570 | 9645 ft | 297 kts | 98° |
| 2026-05-08 01:15 | 26.08831 | -80.59248 | 9317 ft | 295 kts | 98° |
| 2026-05-08 01:15 | 26.08507 | -80.56927 | 8981 ft | 294 kts | 98° |
| 2026-05-08 01:15 | 26.08191 | -80.54653 | 8647 ft | 293 kts | 98° |
| 2026-05-08 01:15 | 26.07910 | -80.52364 | 8354 ft | 287 kts | 94° |
| 2026-05-08 01:16 | 26.07826 | -80.50175 | 7927 ft | 278 kts | 89° |
| 2026-05-08 01:16 | 26.07848 | -80.48088 | 7461 ft | 271 kts | 88° |
| 2026-05-08 01:16 | 26.07879 | -80.46024 | 7005 ft | 264 kts | 88° |
| 2026-05-08 01:16 | 26.07890 | -80.44049 | 6570 ft | 258 kts | 88° |
| 2026-05-08 01:17 | 26.07885 | -80.42169 | 6154 ft | 252 kts | 89° |
| 2026-05-08 01:17 | 26.07872 | -80.40300 | 5737 ft | 247 kts | 89° |
| 2026-05-08 01:17 | 26.07855 | -80.38473 | 5302 ft | 243 kts | 89° |
| 2026-05-08 01:17 | 26.07838 | -80.36654 | 4943 ft | 241 kts | 90° |
| 2026-05-08 01:18 | 26.07823 | -80.34872 | 4748 ft | 237 kts | 90° |
| 2026-05-08 01:18 | 26.07814 | -80.33099 | 4414 ft | 240 kts | 90° |
| 2026-05-08 01:18 | 26.07811 | -80.31259 | 3970 ft | 249 kts | 90° |
| 2026-05-08 01:18 | 26.07806 | -80.29463 | 3467 ft | 244 kts | 90° |
| 2026-05-08 01:19 | 26.07801 | -80.27711 | 2741 ft | 238 kts | 91° |
| 2026-05-08 01:19 | 26.07794 | -80.25956 | 2072 ft | 239 kts | 92° |
| 2026-05-08 01:19 | 26.07775 | -80.24204 | 1524 ft | 225 kts | 93° |
| 2026-05-08 01:19 | 26.07745 | -80.22560 | 1224 ft | 207 kts | 93° |
| 2026-05-08 01:20 | 26.07736 | -80.21066 | 1039 ft | 186 kts | 92° |
| 2026-05-08 01:20 | 26.07728 | -80.19676 | 798 ft | 175 kts | 92° |
| 2026-05-08 01:20 | 26.07721 | -80.18353 | 431 ft | 171 kts | 92° |
| 2026-05-08 01:20 | 26.07703 | -80.17089 | 173 ft | 160 kts | 93° |
| 2026-05-08 01:21 | 26.07695 | -80.15914 | 22 ft | 144 kts | 92° |
| 2026-05-08 01:21 | 26.07685 | -80.14973 | 10 ft | 81 kts | 90° |
| 2026-05-08 01:21 | 26.07629 | -80.14595 | 9 ft | 22 kts | 115° |
| 2026-05-08 01:21 | 26.07580 | -80.14522 | 9 ft | 4 kts | 141° |
| 2026-05-08 01:22 | 26.07567 | -80.14516 | 9 ft | 2 kts | 163° |
| 2026-05-08 01:22 | 26.07534 | -80.14510 | 9 ft | 0 kts | 175° |
| 2026-05-08 01:22 | 26.07492 | -80.14544 | 9 ft | 21 kts | 263° |
| 2026-05-08 01:22 | 26.07490 | -80.14684 | 9 ft | 16 kts | 268° |
| 2026-05-08 01:23 | 26.07487 | -80.14810 | 9 ft | 16 kts | 271° |
| 2026-05-08 01:23 | 26.07455 | -80.14928 | 9 ft | 16 kts | 230° |
| 2026-05-08 01:23 | 26.07408 | -80.14978 | 9 ft | 3 kts | 145° |
| 2026-05-08 01:23 | 26.07378 | -80.14903 | 9 ft | 15 kts | 115° |
| 2026-05-08 01:24 | 26.07293 | -80.14850 | 9 ft | 16 kts | 165° |
| 2026-05-08 01:24 | 26.07233 | -80.14750 | 9 ft | 15 kts | 117° |
| 2026-05-08 01:24 | 26.07205 | -80.14682 | 9 ft | 6 kts | 105° |
| 2026-05-08 01:24 | 26.07199 | -80.14646 | 9 ft | 0 kts | 96° |
| 2026-05-08 01:25 | 26.07196 | -80.14629 | 9 ft | 4 kts | 113° |
| 2026-05-08 01:25 | 26.07183 | -80.14610 | 9 ft | 3 kts | 141° |
| 2026-05-08 01:25 | 26.07178 | -80.14606 | 9 ft | 0 kts | 143° |
| 2026-05-08 01:25 | 26.07177 | -80.14605 | 9 ft | 0 kts | 143° |